Kieimaru — JJ3880 — position and weather

sailwx.info

Track history (hours):
 
Tides and Currents Weather Stations Pressure Air Temp Water Temp Dewpoint Dewpoint Depression Visibility Wind Speed Wind Dir Waves Ship Positions

Kieimaru

Last reported at 2018-Jan-20 12:59 UTC. Time now 2018-Jan-20 13:24 UTC.
Position N 34°43' E 134°50'.

Length 100 m; draft 6.8 m.

Type: Cargo ship. MMSI: 431300131.

Date/timePositionNaut miles runAvg speedWind from/ knotsBaromVisibWave heightAir tempDewpointWater temp
2018-Jan-20 12:59N 34°43' E 134°50'0 0.0
2018-Jan-20 12:29N 34°43' E 134°50'0 0.0
2018-Jan-20 11:53N 34°43' E 134°50'0 0.0
2018-Jan-20 11:29N 34°43' E 134°50'0 0.0
2018-Jan-20 10:47N 34°43' E 134°50'0 0.0
2018-Jan-20 10:26N 34°43' E 134°50'0 0.0
2018-Jan-20 09:08N 34°43' E 134°50'0 0.0
2018-Jan-20 08:56N 34°43' E 134°50'0 0.0
2018-Jan-20 08:29N 34°43' E 134°50'0 0.0
2018-Jan-20 07:59N 34°43' E 134°50'0 0.0
2018-Jan-20 07:17N 34°43' E 134°50'0 0.0
2018-Jan-20 06:44N 34°43' E 134°50'0 0.0
2018-Jan-20 06:29N 34°43' E 134°50'0 0.0
2018-Jan-20 05:56N 34°43' E 134°50'0 0.0
2018-Jan-20 05:29N 34°43' E 134°50'0 0.0
2018-Jan-20 04:59N 34°43' E 134°50'0 0.0
2018-Jan-20 04:29N 34°43' E 134°50'0 0.0
2018-Jan-20 03:59N 34°43' E 134°50'0 0.0
2018-Jan-20 03:23N 34°43' E 134°50'0 0.0
2018-Jan-20 02:59N 34°43' E 134°50'0 0.0
2018-Jan-20 02:29N 34°43' E 134°50'0 0.0
2018-Jan-20 01:41N 34°43' E 134°50'0 0.3
2018-Jan-20 01:30N 34°43' E 134°50'0 0.7
2018-Jan-20 00:58N 34°42' E 134°50'0 0.1
2018-Jan-20 00:28N 34°42' E 134°50'0 0.0
2018-Jan-19 23:58N 34°42' E 134°50'0 0.0
2018-Jan-19 23:19N 34°42' E 134°50'0 1.1
2018-Jan-19 23:00N 34°42' E 134°50'4 9.0
2018-Jan-19 22:30N 34°38' E 134°53'611.8
2018-Jan-19 22:00N 34°38' E 134°60'510.1
2018-Jan-19 21:31N 34°35' E 135°05'510.1
2018-Jan-19 21:00N 34°30' E 135°04'611.1
2018-Jan-19 20:30N 34°25' E 135°02'510.9
2018-Jan-19 20:01N 34°20' E 135°00'5 9.4
2018-Jan-19 19:30N 34°15' E 134°59'5 9.2
2018-Jan-19 19:00N 34°10' E 134°59'510.4
2018-Jan-19 18:31N 34°05' E 134°58'510.4
2018-Jan-19 18:00N 34°00' E 134°55'510.4
2018-Jan-19 17:30N 33°55' E 134°53'510.3
2018-Jan-19 16:59N 33°50' E 134°51'5 9.8
2018-Jan-19 16:30N 33°47' E 134°48'4 0.2
2018-Jan-18 21:23N 33°43' E 134°44'913.0
2018-Jan-18 20:44N 33°50' E 134°51'412.9
2018-Jan-18 20:27N 33°53' E 134°52'612.8
2018-Jan-18 20:00N 33°59' E 134°53'613.0
2018-Jan-18 19:30N 34°05' E 134°55'713.4
2018-Jan-18 19:00N 34°12' E 134°57'714.7
2018-Jan-18 18:30N 34°19' E 134°59'713.4
2018-Jan-18 18:00N 34°25' E 135°00'713.1
2018-Jan-18 17:30N 34°32' E 135°02'611.5
2018-Jan-18 17:00N 34°37' E 134°59'713.7
2018-Jan-18 16:30N 34°39' E 134°51'4 8.3
2018-Jan-18 16:00N 34°43' E 134°50'0 0.0
2018-Jan-18 15:29N 34°43' E 134°50'0 0.0
2018-Jan-18 14:59N 34°43' E 134°50'0 0.0
2018-Jan-18 14:29N 34°43' E 134°50'0 0.0
2018-Jan-18 13:59N 34°43' E 134°50'0 0.0
2018-Jan-18 13:29N 34°43' E 134°50'0 0.0
2018-Jan-18 12:59N 34°43' E 134°50'0 0.0
2018-Jan-18 12:26N 34°43' E 134°50'0 0.1
2018-Jan-18 11:59N 34°43' E 134°50'0 0.1
2018-Jan-18 11:29N 34°43' E 134°50'0 0.0
2018-Jan-18 10:59N 34°43' E 134°50'0 0.0
2018-Jan-18 10:23N 34°43' E 134°50'0 0.0
2018-Jan-18 09:47N 34°43' E 134°50'0 0.0
2018-Jan-18 09:29N 34°43' E 134°50'0 0.0
2018-Jan-18 08:53N 34°43' E 134°50'0 0.0
2018-Jan-18 08:20N 34°43' E 134°50'0 0.0
2018-Jan-18 07:29N 34°43' E 134°50'0 0.0
2018-Jan-18 06:59N 34°43' E 134°50'0 0.0
2018-Jan-18 06:23N 34°43' E 134°50'0 0.0
2018-Jan-18 05:47N 34°43' E 134°50'0 0.0
2018-Jan-18 02:35N 34°43' E 134°50'0 0.0
2018-Jan-18 02:14N 34°43' E 134°50'0 0.0
2018-Jan-18 01:56N 34°43' E 134°50'0 0.0
2018-Jan-18 01:29N 34°43' E 134°50'0 0.0
2018-Jan-18 00:50N 34°43' E 134°50'0 0.0
2018-Jan-17 23:53N 34°43' E 134°50'  
2018-Jan-12 15:00N 34°43' E 134°50'0 0.0
2018-Jan-12 14:28N 34°43' E 134°50'0 0.0
2018-Jan-12 13:13N 34°43' E 134°50'0 0.2
2018-Jan-12 12:58N 34°43' E 134°50'0 0.1
2018-Jan-12 12:16N 34°43' E 134°50'0 0.0
2018-Jan-12 11:43N 34°43' E 134°50'0 0.0
2018-Jan-12 11:25N 34°43' E 134°50'0 0.1
2018-Jan-12 10:55N 34°43' E 134°50'0 0.1
2018-Jan-12 10:25N 34°43' E 134°50'0 0.0
2018-Jan-12 09:55N 34°43' E 134°50'0 0.0
2018-Jan-12 09:25N 34°43' E 134°50'0 0.0
2018-Jan-12 08:49N 34°43' E 134°50'0 0.0
2018-Jan-12 03:30N 34°43' E 134°50'1 1.2
2018-Jan-12 03:00N 34°42' E 134°50'4 9.1
2018-Jan-12 02:31N 34°39' E 134°46'611.7
2018-Jan-12 02:00N 34°36' E 134°40'611.6
2018-Jan-12 01:30N 34°32' E 134°34'611.5
2018-Jan-12 01:00N 34°29' E 134°28'8810.6
2018-Jan-11 16:44N 34°02' E 132°47'311.4
2018-Jan-11 16:30N 34°00' E 132°45'510.8
2018-Jan-11 16:00N 33°56' E 132°41'610.8
2018-Jan-11 15:27N 33°52' E 132°36'510.8
2018-Jan-11 14:59N 33°49' E 132°31'3310.5
2018-Jan-11 11:51N 33°44' E 131°52'511.6
2018-Jan-11 11:25N 33°45' E 131°46'511.9
2018-Jan-11 11:00N 33°46' E 131°40'611.9
2018-Jan-11 10:29N 33°47' E 131°33'611.6
2018-Jan-11 10:00N 33°48' E 131°26'611.7
2018-Jan-11 09:30N 33°50' E 131°20'611.0
2018-Jan-11 09:00N 33°52' E 131°13'4 8.3
2018-Jan-11 08:30N 33°56' E 131°12'1 1.2
2018-Jan-11 07:59N 33°56' E 131°12'0 0.0
2018-Jan-11 07:30N 33°56' E 131°12'0 0.0
2018-Jan-11 07:00N 33°56' E 131°12'0 0.0
2018-Jan-11 06:30N 33°56' E 131°12'0 0.0
2018-Jan-11 06:00N 33°56' E 131°12'0 0.0
2018-Jan-11 05:30N 33°56' E 131°12'0 0.0
2018-Jan-11 05:00N 33°56' E 131°12'0 0.0
2018-Jan-11 04:27N 33°56' E 131°12'0 0.0
2018-Jan-11 04:00N 33°56' E 131°12'0 0.0
2018-Jan-11 03:30N 33°56' E 131°12'0 0.0
2018-Jan-11 02:54N 33°56' E 131°12'0 0.0
2018-Jan-11 02:30N 33°56' E 131°12'0 0.0
2018-Jan-11 02:00N 33°56' E 131°12'1 1.9
2018-Jan-11 01:30N 33°56' E 131°12'4 8.0
2018-Jan-11 01:00N 33°52' E 131°15'510.7
2018-Jan-11 00:30N 33°50' E 131°21'511.0
2018-Jan-11 00:00N 33°49' E 131°27'611.1
2018-Jan-10 23:30N 33°48' E 131°34'611.2
2018-Jan-10 23:00N 33°47' E 131°40'611.3
2018-Jan-10 22:30N 33°46' E 131°47'2210.9
2018-Jan-10 20:29N 33°43' E 132°13'1411.4
2018-Jan-10 19:16N 33°48' E 132°29'311.5
2018-Jan-10 19:00N 33°50' E 132°32'611.3
2018-Jan-10 18:30N 33°54' E 132°37'510.8
2018-Jan-10 18:00N 33°57' E 132°42'710.9
2018-Jan-10 17:24N 34°02' E 132°47'  
Track history (hours):
 
Tides and Currents Weather Stations Pressure Air Temp Water Temp Dewpoint Dewpoint Depression Visibility Wind Speed Wind Dir Waves Ship Positions

Kieimaru

Last reported at 2018-Jan-20 12:59 UTC. Time now 2018-Jan-20 13:24 UTC.
Position N 34°43' E 134°50'.

Length 100 m; draft 6.8 m.

Type: Cargo ship. MMSI: 431300131.

Date/timePositionNaut miles runAvg speedWind from/ knotsBaromVisibWave heightAir tempDewpointWater temp
2018-Jan-20 12:59N 34°43' E 134°50'0 0.0
2018-Jan-20 12:29N 34°43' E 134°50'0 0.0
2018-Jan-20 11:53N 34°43' E 134°50'0 0.0
2018-Jan-20 11:29N 34°43' E 134°50'0 0.0
2018-Jan-20 10:47N 34°43' E 134°50'0 0.0
2018-Jan-20 10:26N 34°43' E 134°50'0 0.0
2018-Jan-20 09:08N 34°43' E 134°50'0 0.0
2018-Jan-20 08:56N 34°43' E 134°50'0 0.0
2018-Jan-20 08:29N 34°43' E 134°50'0 0.0
2018-Jan-20 07:59N 34°43' E 134°50'0 0.0
2018-Jan-20 07:17N 34°43' E 134°50'0 0.0
2018-Jan-20 06:44N 34°43' E 134°50'0 0.0
2018-Jan-20 06:29N 34°43' E 134°50'0 0.0
2018-Jan-20 05:56N 34°43' E 134°50'0 0.0
2018-Jan-20 05:29N 34°43' E 134°50'0 0.0
2018-Jan-20 04:59N 34°43' E 134°50'0 0.0
2018-Jan-20 04:29N 34°43' E 134°50'0 0.0
2018-Jan-20 03:59N 34°43' E 134°50'0 0.0
2018-Jan-20 03:23N 34°43' E 134°50'0 0.0
2018-Jan-20 02:59N 34°43' E 134°50'0 0.0
2018-Jan-20 02:29N 34°43' E 134°50'0 0.0
2018-Jan-20 01:41N 34°43' E 134°50'0 0.3
2018-Jan-20 01:30N 34°43' E 134°50'0 0.7
2018-Jan-20 00:58N 34°42' E 134°50'0 0.1
2018-Jan-20 00:28N 34°42' E 134°50'0 0.0
2018-Jan-19 23:58N 34°42' E 134°50'0 0.0
2018-Jan-19 23:19N 34°42' E 134°50'0 1.1
2018-Jan-19 23:00N 34°42' E 134°50'4 9.0
2018-Jan-19 22:30N 34°38' E 134°53'611.8
2018-Jan-19 22:00N 34°38' E 134°60'510.1
2018-Jan-19 21:31N 34°35' E 135°05'510.1
2018-Jan-19 21:00N 34°30' E 135°04'611.1
2018-Jan-19 20:30N 34°25' E 135°02'510.9
2018-Jan-19 20:01N 34°20' E 135°00'5 9.4
2018-Jan-19 19:30N 34°15' E 134°59'5 9.2
2018-Jan-19 19:00N 34°10' E 134°59'510.4
2018-Jan-19 18:31N 34°05' E 134°58'510.4
2018-Jan-19 18:00N 34°00' E 134°55'510.4
2018-Jan-19 17:30N 33°55' E 134°53'510.3
2018-Jan-19 16:59N 33°50' E 134°51'5 9.8
2018-Jan-19 16:30N 33°47' E 134°48'4 0.2
2018-Jan-18 21:23N 33°43' E 134°44'913.0
2018-Jan-18 20:44N 33°50' E 134°51'412.9
2018-Jan-18 20:27N 33°53' E 134°52'612.8
2018-Jan-18 20:00N 33°59' E 134°53'613.0
2018-Jan-18 19:30N 34°05' E 134°55'713.4
2018-Jan-18 19:00N 34°12' E 134°57'714.7
2018-Jan-18 18:30N 34°19' E 134°59'713.4
2018-Jan-18 18:00N 34°25' E 135°00'713.1
2018-Jan-18 17:30N 34°32' E 135°02'611.5
2018-Jan-18 17:00N 34°37' E 134°59'713.7
2018-Jan-18 16:30N 34°39' E 134°51'4 8.3
2018-Jan-18 16:00N 34°43' E 134°50'0 0.0
2018-Jan-18 15:29N 34°43' E 134°50'0 0.0
2018-Jan-18 14:59N 34°43' E 134°50'0 0.0
2018-Jan-18 14:29N 34°43' E 134°50'0 0.0
2018-Jan-18 13:59N 34°43' E 134°50'0 0.0
2018-Jan-18 13:29N 34°43' E 134°50'0 0.0
2018-Jan-18 12:59N 34°43' E 134°50'0 0.0
2018-Jan-18 12:26N 34°43' E 134°50'0 0.1
2018-Jan-18 11:59N 34°43' E 134°50'0 0.1
2018-Jan-18 11:29N 34°43' E 134°50'0 0.0
2018-Jan-18 10:59N 34°43' E 134°50'0 0.0
2018-Jan-18 10:23N 34°43' E 134°50'0 0.0
2018-Jan-18 09:47N 34°43' E 134°50'0 0.0
2018-Jan-18 09:29N 34°43' E 134°50'0 0.0
2018-Jan-18 08:53N 34°43' E 134°50'0 0.0
2018-Jan-18 08:20N 34°43' E 134°50'0 0.0
2018-Jan-18 07:29N 34°43' E 134°50'0 0.0
2018-Jan-18 06:59N 34°43' E 134°50'0 0.0
2018-Jan-18 06:23N 34°43' E 134°50'0 0.0
2018-Jan-18 05:47N 34°43' E 134°50'0 0.0
2018-Jan-18 02:35N 34°43' E 134°50'0 0.0
2018-Jan-18 02:14N 34°43' E 134°50'0 0.0
2018-Jan-18 01:56N 34°43' E 134°50'0 0.0
2018-Jan-18 01:29N 34°43' E 134°50'0 0.0
2018-Jan-18 00:50N 34°43' E 134°50'0 0.0
2018-Jan-17 23:53N 34°43' E 134°50'  
2018-Jan-12 15:00N 34°43' E 134°50'0 0.0
2018-Jan-12 14:28N 34°43' E 134°50'0 0.0
2018-Jan-12 13:13N 34°43' E 134°50'0 0.2
2018-Jan-12 12:58N 34°43' E 134°50'0 0.1
2018-Jan-12 12:16N 34°43' E 134°50'0 0.0
2018-Jan-12 11:43N 34°43' E 134°50'0 0.0
2018-Jan-12 11:25N 34°43' E 134°50'0 0.1
2018-Jan-12 10:55N 34°43' E 134°50'0 0.1
2018-Jan-12 10:25N 34°43' E 134°50'0 0.0
2018-Jan-12 09:55N 34°43' E 134°50'0 0.0
2018-Jan-12 09:25N 34°43' E 134°50'0 0.0
2018-Jan-12 08:49N 34°43' E 134°50'0 0.0
2018-Jan-12 03:30N 34°43' E 134°50'1 1.2
2018-Jan-12 03:00N 34°42' E 134°50'4 9.1
2018-Jan-12 02:31N 34°39' E 134°46'611.7
2018-Jan-12 02:00N 34°36' E 134°40'611.6
2018-Jan-12 01:30N 34°32' E 134°34'611.5
2018-Jan-12 01:00N 34°29' E 134°28'8810.6
2018-Jan-11 16:44N 34°02' E 132°47'311.4
2018-Jan-11 16:30N 34°00' E 132°45'510.8
2018-Jan-11 16:00N 33°56' E 132°41'610.8
2018-Jan-11 15:27N 33°52' E 132°36'510.8
2018-Jan-11 14:59N 33°49' E 132°31'3310.5
2018-Jan-11 11:51N 33°44' E 131°52'511.6
2018-Jan-11 11:25N 33°45' E 131°46'511.9
2018-Jan-11 11:00N 33°46' E 131°40'611.9
2018-Jan-11 10:29N 33°47' E 131°33'611.6
2018-Jan-11 10:00N 33°48' E 131°26'611.7
2018-Jan-11 09:30N 33°50' E 131°20'611.0
2018-Jan-11 09:00N 33°52' E 131°13'4 8.3
2018-Jan-11 08:30N 33°56' E 131°12'1 1.2
2018-Jan-11 07:59N 33°56' E 131°12'0 0.0
2018-Jan-11 07:30N 33°56' E 131°12'0 0.0
2018-Jan-11 07:00N 33°56' E 131°12'0 0.0
2018-Jan-11 06:30N 33°56' E 131°12'0 0.0
2018-Jan-11 06:00N 33°56' E 131°12'0 0.0
2018-Jan-11 05:30N 33°56' E 131°12'0 0.0
2018-Jan-11 05:00N 33°56' E 131°12'0 0.0
2018-Jan-11 04:27N 33°56' E 131°12'0 0.0
2018-Jan-11 04:00N 33°56' E 131°12'0 0.0
2018-Jan-11 03:30N 33°56' E 131°12'0 0.0
2018-Jan-11 02:54N 33°56' E 131°12'0 0.0
2018-Jan-11 02:30N 33°56' E 131°12'0 0.0
2018-Jan-11 02:00N 33°56' E 131°12'1 1.9
2018-Jan-11 01:30N 33°56' E 131°12'4 8.0
2018-Jan-11 01:00N 33°52' E 131°15'510.7
2018-Jan-11 00:30N 33°50' E 131°21'511.0
2018-Jan-11 00:00N 33°49' E 131°27'611.1
2018-Jan-10 23:30N 33°48' E 131°34'611.2
2018-Jan-10 23:00N 33°47' E 131°40'611.3
2018-Jan-10 22:30N 33°46' E 131°47'2210.9
2018-Jan-10 20:29N 33°43' E 132°13'1411.4
2018-Jan-10 19:16N 33°48' E 132°29'311.5
2018-Jan-10 19:00N 33°50' E 132°32'611.3
2018-Jan-10 18:30N 33°54' E 132°37'510.8
2018-Jan-10 18:00N 33°57' E 132°42'710.9
2018-Jan-10 17:24N 34°02' E 132°47'  

Dump ship's entire track history